Latest Weather Observations for Hogan Island

IDT60801

Issued at 5:02 am EST Sunday 24 July 2016 (issued every 30 minutes, with the page automatically refreshed every 10 minutes)

About weather observations | Map of weather stations | Latest weather observations for TAS | Other Formats
Station Details ID: 200838 Name: HOGAN ISLAND Lat: -39.22 Lon: 146.98 Height: 116.0 m
Data from the previous 72 hours. | See also: Recent months at Hogan Island
Date/Time
EST
Temp
°C
App
Temp
°C
Dew
Point
°C
Rel
Hum
%
Delta-T
°C
Wind Press
QNH
hPa
Press
MSL
hPa
Rain since
9am
mm
Dir  Spd
km/h
Gust
km/h
Spd
kts
Gust
kts
24/05:00am 7.3 -4.2 4.6 83 1.2 WNW 54 63 29 34 1008.4 - 4.6
24/04:30am 7.7 -2.6 4.7 81 1.3 WNW 48 57 26 31 1008.4 - 4.6
24/04:00am 7.7 -1.4 4.1 78 1.6 WNW 41 52 22 28 1008.5 - 4.6
24/03:30am 7.9 -0.6 3.4 73 1.9 NW 37 54 20 29 1008.6 - 4.6
24/03:28am 8.0 -1.2 3.3 72 2.0 NW 41 54 22 29 1008.5 - 4.6
24/03:00am 8.4 0.1 2.0 64 2.7 W 35 44 19 24 1008.6 1008.7 4.6
24/02:30am 8.2 -1.4 1.1 61 2.9 W 41 50 22 27 1008.7 - 4.6
24/02:00am 8.3 -1.7 2.1 65 2.6 W 44 54 24 29 1008.8 - 4.6
24/01:30am 7.7 -1.4 2.0 67 2.4 WNW 39 50 21 27 1009.0 - 4.6
24/01:09am 8.6 -1.9 1.3 60 3.0 W 46 70 25 38 1008.6 - 4.6
24/01:00am 8.5 -2.0 1.6 62 2.9 W 46 56 25 30 1008.7 - 4.6
24/12:30am 8.5 -2.6 2.3 65 2.6 W 50 57 27 31 1008.8 - 4.6
24/12:00am 8.6 -2.6 2.0 63 2.8 W 50 57 27 31 1008.9 1009.0 4.6
 
Date/Time
EST
Temp
°C
App
Temp
°C
Dew
Point
°C
Rel
Hum
%
Delta-T
°C
Wind Press
QNH
hPa
Press
MSL
hPa
Rain since
9am
mm
Dir  Spd
km/h
Gust
km/h
Spd
kts
Gust
kts
23/11:30pm 8.6 -1.6 0.8 58 3.2 WSW 44 56 24 30 1008.8 - 4.6
23/11:00pm 8.5 -3.0 0.2 56 3.3 WSW 50 59 27 32 1008.6 - 4.6
23/10:30pm 8.6 -3.7 -0.2 54 3.5 WSW 54 63 29 34 1008.3 - 4.6
23/10:00pm 8.0 -4.3 1.8 65 2.6 WSW 56 69 30 37 1008.1 - 4.6
23/09:30pm 8.1 -3.8 2.4 67 2.4 WSW 54 63 29 34 1007.7 - 4.6
23/09:11pm 7.4 -4.6 1.5 66 2.4 WSW 54 80 29 43 1007.5 - 4.6
23/09:03pm 6.9 -10.0 1.8 70 2.1 WSW 80 98 43 53 1007.2 - 4.6
23/09:00pm 7.1 -10.7 2.4 72 2.0 WSW 85 98 46 53 1006.8 1006.9 4.6
23/08:58pm 6.8 -11.8 1.9 71 2.0 WSW 89 98 48 53 1006.7 - 4.6
23/08:55pm 8.4 -6.0 2.2 65 2.6 WSW 67 98 36 53 1006.9 - 4.6
23/08:30pm 8.3 -6.5 1.9 64 2.7 SW 69 82 37 44 1006.4 - 4.6
23/08:26pm 8.5 -6.2 2.7 67 2.5 SW 69 87 37 47 1006.4 - 4.6
23/08:00pm 8.3 -8.4 0.8 59 3.0 WSW 78 93 42 50 1005.2 - 4.6
23/07:44pm 8.1 -8.0 2.1 66 2.5 WSW 76 96 41 52 1005.2 - 4.6
23/07:30pm 7.7 -9.0 2.8 71 2.1 WSW 80 96 43 52 1005.4 - 4.6
23/07:00pm 7.4 -10.6 3.1 74 1.8 WSW 87 109 47 59 1004.4 - 4.6
23/06:30pm 8.2 -10.2 3.3 71 2.1 WSW 89 111 48 60 1002.8 - 4.6
23/06:00pm 5.7 -13.7 1.6 75 1.7 WSW 93 120 50 65 1002.5 1002.5 4.6
23/05:30pm 8.2 -13.2 2.4 67 2.4 WSW 104 122 56 66 1001.4 - 4.6
23/05:00pm 8.6 -11.4 3.8 72 2.1 W 98 120 53 65 999.9 - 4.6
23/04:41pm 7.3 -12.8 3.2 75 1.7 W 98 135 53 73 999.3 - 4.4
23/04:39pm 8.1 -10.4 4.5 78 1.6 W 91 117 49 63 999.7 - 4.4
23/04:36pm 8.0 -10.1 4.6 79 1.5 W 89 126 48 68 1000.2 - 4.4
23/04:30pm 6.5 -16.0 3.5 81 1.3 W 111 130 60 70 1000.1 - 4.4
23/04:27pm 6.1 -18.2 2.9 80 1.3 W 120 130 65 70 999.3 - 4.4
23/04:00pm 7.6 -12.5 3.3 74 1.8 W 98 120 53 65 999.4 - 4.4
23/03:30pm 6.2 -12.2 3.2 81 1.3 WSW 89 109 48 59 999.8 - 3.8
23/03:07pm 8.4 -11.2 3.5 71 2.1 W 96 115 52 62 999.0 - 3.6
23/03:00pm 8.4 -11.6 3.5 71 2.1 W 98 113 53 61 998.4 998.5 3.6
23/02:34pm 7.8 -9.7 5.9 88 0.9 W 87 106 47 57 998.4 - 3.6
23/02:30pm 7.4 -10.1 5.9 90 0.7 W 87 104 47 56 998.5 - 3.6
23/02:09pm 5.1 -14.3 3.8 91 0.5 WSW 95 126 51 68 998.4 - 3.6
23/02:08pm 5.1 -13.2 3.8 91 0.5 WSW 89 126 48 68 998.8 - 3.6
23/02:01pm 4.6 -18.4 2.6 87 0.8 WSW 113 132 61 71 998.5 - 3.4
23/02:00pm 4.3 -19.2 2.2 86 0.8 WSW 115 132 62 71 998.3 - 3.4
23/01:58pm 5.1 -18.8 2.1 81 1.2 WSW 117 132 63 71 997.7 - 3.0
23/01:57pm 6.1 -13.5 2.7 79 1.4 W 95 132 51 71 997.9 - 3.0
23/01:30pm 6.0 -11.0 4.3 89 0.7 WSW 83 109 45 59 998.4 - 2.8
23/01:20pm 6.3 -10.3 3.3 81 1.3 WSW 80 102 43 55 998.4 - 2.4
23/01:16pm 7.1 -8.3 4.1 81 1.3 WSW 74 95 40 51 998.7 - 2.4
23/01:00pm 5.8 -13.4 3.1 83 1.1 W 93 113 50 61 998.4 - 2.4
23/12:30pm 5.5 -13.8 4.2 91 0.6 WSW 95 117 51 63 998.0 - 2.4
23/12:00pm 4.6 -14.5 3.4 92 0.5 W 93 115 50 62 997.6 997.7 2.2
23/11:57am 4.7 -14.4 3.4 91 0.5 W 93 111 50 60 997.7 - 2.2
23/11:49am 4.3 -16.9 0.8 78 1.4 WSW 102 111 55 60 997.5 - 0.8
23/11:30am 7.0 -9.8 2.7 74 1.8 W 80 98 43 53 997.4 - 0.8
23/11:28am 6.7 -10.4 2.6 75 1.7 W 82 107 44 58 997.4 - 0.8
23/11:21am 5.6 -13.0 1.7 76 1.6 W 89 132 48 71 997.5 - 0.8
23/11:14am 4.9 -18.7 1.4 78 1.4 W 115 135 62 73 996.7 - 0.8
23/11:10am 5.9 -18.4 1.6 74 1.7 W 119 133 64 72 995.8 - 0.8
23/11:01am 7.8 -12.5 1.9 66 2.4 WSW 98 119 53 64 996.0 - 0.8
23/11:00am 7.7 -12.6 1.8 66 2.4 WSW 98 115 53 62 996.1 - 0.8
23/10:30am 5.3 -14.9 2.7 83 1.1 WSW 98 120 53 65 996.0 - 0.8
23/10:00am 7.8 -12.0 2.9 71 2.1 W 96 119 52 64 995.6 - 0.0
23/09:37am 7.9 -11.0 2.2 67 2.4 W 91 109 49 59 995.3 - 0.0
23/09:30am 7.5 -12.3 1.8 67 2.3 W 95 109 51 59 995.1 - 0.0
23/09:00am 5.9 -14.7 4.4 90 0.7 W 102 120 55 65 994.4 994.4 19.0
23/08:51am 5.2 -17.7 3.5 89 0.7 W 113 133 61 72 993.9 - 18.8
23/08:49am 4.0 -20.9 1.7 85 0.9 W 122 133 66 72 993.3 - 18.8
23/08:31am 8.0 -13.1 1.6 64 2.6 W 102 120 55 65 992.7 - 18.4
23/08:30am 8.0 -13.5 1.6 64 2.6 W 104 120 56 65 992.8 - 18.4
23/08:01am 7.8 -13.9 2.9 71 2.1 W 106 124 57 67 992.1 - 18.4
23/08:00am 7.7 -14.0 2.6 70 2.1 W 106 120 57 65 992.2 - 18.4
23/07:37am 6.3 -16.2 3.6 83 1.1 WSW 111 132 60 71 992.0 - 18.4
23/07:34am 7.2 -16.3 4.3 82 1.3 WSW 117 132 63 71 991.5 - 18.4
23/07:30am 8.1 -10.3 5.2 82 1.3 W 91 109 49 59 991.8 - 18.2
23/07:04am 7.4 -9.4 5.5 88 0.9 WSW 83 104 45 56 991.8 - 18.0
23/07:00am 6.9 -10.4 5.1 88 0.8 WSW 85 119 46 64 992.0 - 18.0
23/06:52am 6.2 -15.3 4.0 86 0.9 WSW 106 128 57 69 991.4 - 18.0
23/06:50am 6.9 -16.2 4.6 85 1.0 W 115 128 62 69 990.6 - 17.8
23/06:49am 7.3 -10.4 4.9 85 1.1 WSW 87 124 47 67 990.5 - 17.8
23/06:36am 7.6 -9.2 5.6 87 0.9 WSW 83 102 45 55 991.4 - 17.8
23/06:30am 7.8 -9.8 5.4 85 1.1 W 87 102 47 55 990.9 - 17.8
23/06:01am 8.3 -9.9 5.9 85 1.1 W 91 117 49 63 989.6 - 17.8
23/06:00am 8.4 -9.4 6.2 86 1.0 W 89 104 48 56 989.9 990.0 17.8
23/05:51am 8.3 -9.8 6.6 89 0.8 W 91 109 49 59 989.5 - 17.8
23/05:44am 8.3 -9.7 6.8 90 0.7 W 91 104 49 56 989.1 - 17.8
23/05:41am 8.1 -5.8 6.6 90 0.7 WSW 69 91 37 49 990.0 - 17.8
23/05:30am 7.1 -7.6 5.3 88 0.8 W 72 87 39 47 990.0 - 17.4
23/05:13am 7.3 -9.0 5.3 87 0.9 W 80 113 43 61 988.8 - 17.0
23/05:00am 7.7 -8.0 6.3 91 0.6 W 78 95 42 51 989.2 - 16.8
23/04:34am 6.3 -7.6 4.9 91 0.6 W 67 85 36 46 989.2 - 16.8
23/04:30am 6.7 -8.5 5.0 89 0.7 W 74 85 40 46 989.1 - 16.4
23/04:29am 6.8 -9.1 5.0 88 0.8 W 78 85 42 46 988.8 - 16.2
23/04:28am 7.6 -4.2 5.6 87 0.9 W 57 83 31 45 988.7 - 15.6
23/04:26am 8.1 -3.1 6.1 87 0.9 W 54 70 29 38 988.7 - 15.2
23/04:00am 7.4 -1.8 5.5 88 0.9 W 43 50 23 27 988.7 - 15.0
23/03:30am 6.9 -2.3 5.5 91 0.6 W 43 50 23 27 988.6 - 14.4
23/03:00am 6.7 -4.6 5.5 92 0.5 WSW 54 63 29 34 988.6 988.6 13.8
23/02:50am 6.9 -1.5 5.7 92 0.5 WSW 39 61 21 33 988.4 - 13.2
23/02:30am 7.3 0.3 6.1 92 0.5 WSW 32 43 17 23 988.6 - 11.4
23/02:00am 7.5 0.6 6.4 93 0.5 WSW 32 39 17 21 988.8 - 10.6
23/01:45am 7.5 -1.5 6.3 92 0.5 WSW 43 59 23 32 988.8 - 10.2
23/01:30am 7.6 -3.8 6.5 93 0.5 W 56 70 30 38 988.5 - 9.8
23/01:15am 8.3 -1.1 7.1 92 0.6 W 46 67 25 36 988.7 - 8.6
23/01:00am 8.8 1.2 7.7 93 0.5 WNW 37 44 20 24 989.1 - 6.0
23/12:30am 9.0 0.7 7.8 92 0.6 WNW 41 46 22 25 989.4 - 4.2
23/12:00am 9.2 3.8 8.0 92 0.6 WNW 26 33 14 18 989.8 989.9 3.0
 
Date/Time
EST
Temp
°C
App
Temp
°C
Dew
Point
°C
Rel
Hum
%
Delta-T
°C
Wind Press
QNH
hPa
Press
MSL
hPa
Rain since
9am
mm
Dir  Spd
km/h
Gust
km/h
Spd
kts
Gust
kts
22/11:30pm 9.4 2.6 7.5 88 0.9 NW 33 44 18 24 990.3 - 1.6
22/11:15pm 9.8 1.5 6.3 79 1.6 WNW 39 48 21 26 990.4 - 1.0
22/11:00pm 10.6 4.5 6.4 75 2.0 W 28 33 15 18 990.6 - 0.8
22/10:30pm 10.8 4.0 6.7 76 1.9 W 32 37 17 20 990.8 - 0.8
22/10:00pm 10.8 2.2 6.4 74 2.1 W 41 48 22 26 990.9 - 0.8
22/09:30pm 10.9 2.3 6.3 73 2.2 W 41 48 22 26 991.5 - 0.8
22/09:00pm 10.9 1.5 7.0 77 1.9 W 46 56 25 30 991.9 992.0 0.8
22/08:30pm 10.9 0.3 6.8 76 2.0 W 52 61 28 33 991.8 - 0.8
22/08:00pm 11.4 -0.4 7.5 77 1.9 W 59 67 32 36 992.0 - 0.8
22/07:30pm 11.6 -1.5 6.7 72 2.3 W 65 76 35 41 991.9 - 0.8
22/07:00pm 11.6 -2.4 6.9 73 2.3 W 70 82 38 44 991.5 - 0.8
22/06:30pm 11.6 -2.6 7.9 78 1.8 W 72 82 39 44 991.3 - 0.8
22/06:00pm 11.8 -1.7 8.1 78 1.8 W 69 82 37 44 991.3 991.4 0.8
22/05:30pm 11.9 -2.5 8.4 79 1.7 W 74 89 40 48 990.6 - 0.8
22/05:00pm 11.8 -1.7 9.2 84 1.3 W 70 80 38 43 990.4 - 0.8
22/04:30pm 11.1 -3.5 9.2 88 1.0 W 76 87 41 47 990.1 - 0.8
22/04:12pm 11.6 -0.7 9.9 89 0.9 W 65 89 35 48 990.1 - 0.8
22/04:00pm 11.7 -2.3 9.9 89 0.9 W 74 87 40 47 989.9 - 0.8
22/03:30pm 11.6 -3.2 9.9 89 0.9 W 78 89 42 48 989.8 - 0.8
22/03:22pm 11.5 -2.9 9.9 90 0.8 WNW 76 95 41 51 989.6 - 0.6
22/03:00pm 11.2 -3.3 9.5 89 0.9 W 76 89 41 48 989.6 989.7 0.6
22/02:39pm 11.5 -5.6 9.1 85 1.2 W 89 107 48 58 989.3 - 0.6
22/02:30pm 11.3 -6.2 9.0 86 1.2 W 91 106 49 57 989.1 - 0.6
22/02:13pm 12.9 -2.1 9.2 78 1.9 WNW 78 96 42 52 988.9 - 0.2
22/02:00pm 14.1 -1.3 9.1 72 2.6 WNW 80 95 43 51 988.8 - 0.2
22/01:30pm 14.5 0.2 10.3 76 2.2 WNW 76 85 41 46 989.1 - 0.2
22/01:18pm 14.4 0.1 10.4 77 2.1 WNW 76 95 41 51 989.2 - 0.2
22/01:00pm 14.0 0.5 10.6 80 1.8 WNW 72 80 39 43 989.9 - 0.2
22/12:31pm 14.1 1.8 11.3 83 1.5 WNW 67 87 36 47 989.7 - 0.2
22/12:30pm 13.9 1.9 11.2 84 1.4 WNW 65 82 35 44 989.9 - 0.2
22/12:00pm 14.0 3.2 11.2 83 1.5 WNW 59 69 32 37 991.1 991.2 0.2
22/11:30am 13.7 3.7 10.9 83 1.5 WNW 54 63 29 34 991.6 - 0.2
22/11:00am 13.6 2.4 11.1 85 1.3 WNW 61 74 33 40 992.2 - 0.2
22/10:55am 13.7 2.6 11.4 86 1.2 WNW 61 74 33 40 992.4 - 0.2
22/10:30am 13.5 5.4 12.2 92 0.7 WNW 46 54 25 29 992.9 - 0.2
22/10:00am 13.5 4.8 12.4 93 0.6 WNW 50 61 27 33 993.3 - 0.0
22/09:30am 13.6 4.8 12.3 92 0.7 WNW 50 57 27 31 993.6 - 0.0
22/09:00am 13.8 4.0 12.7 93 0.6 NW 56 65 30 35 993.7 993.7 6.0
22/08:30am 13.6 3.6 12.7 94 0.5 NW 57 70 31 38 994.1 - 6.0
22/08:00am 13.3 4.5 12.2 93 0.6 NW 50 59 27 32 994.4 - 5.8
22/07:30am 13.4 4.9 12.1 92 0.7 NW 48 57 26 31 994.8 - 5.8
22/07:00am 12.8 6.5 11.2 90 0.8 NNW 35 46 19 25 995.1 - 5.2
22/06:30am 12.8 5.7 9.4 80 1.7 N 37 52 20 28 995.9 - 2.4
22/06:00am 13.5 7.7 9.4 76 2.1 N 30 39 16 21 996.3 996.4 0.6
22/05:30am 13.0 8.3 9.4 79 1.8 N 24 32 13 17 996.6 - 0.6
22/05:00am 13.2 6.8 9.3 77 2.0 NNW 33 43 18 23 997.8 - 0.2
22/04:30am 13.8 7.3 8.8 72 2.5 N 33 46 18 25 998.1 - 0.2
22/04:00am 14.2 5.1 8.6 69 2.8 N 46 56 25 30 998.1 - 0.2
22/03:30am 14.2 4.7 8.4 68 2.9 N 48 61 26 33 998.7 - 0.2
22/03:00am 13.7 5.1 9.0 73 2.4 N 44 52 24 28 999.8 999.9 0.2
22/02:30am 13.5 4.9 8.8 73 2.4 N 44 54 24 29 1000.6 - 0.2
22/02:00am 13.6 5.1 9.3 75 2.2 N 44 57 24 31 1001.6 - 0.2
22/01:30am 13.4 4.9 9.3 76 2.1 N 44 59 24 32 1002.2 - 0.2
22/01:00am 13.0 4.6 9.1 77 2.0 N 43 57 23 31 1003.2 - 0.2
22/12:30am 13.1 4.6 9.2 77 2.0 N 44 56 24 30 1003.8 - 0.2
22/12:00am 12.5 5.5 10.0 85 1.3 N 37 46 20 25 1004.8 1004.9 0.2
 
Date/Time
EST
Temp
°C
App
Temp
°C
Dew
Point
°C
Rel
Hum
%
Delta-T
°C
Wind Press
QNH
hPa
Press
MSL
hPa
Rain since
9am
mm
Dir  Spd
km/h
Gust
km/h
Spd
kts
Gust
kts
21/11:30pm 12.2 4.9 10.3 88 1.0 N 39 46 21 25 1005.4 - 0.2
21/11:00pm 12.0 5.0 10.1 88 1.0 N 37 44 20 24 1005.6 - 0.2
21/10:30pm 12.3 5.7 9.9 85 1.2 N 35 44 19 24 1006.7 - 0.2
21/10:00pm 12.5 5.6 10.4 87 1.1 N 37 43 20 23 1007.0 - 0.2
21/09:30pm 11.8 5.6 10.0 89 0.9 N 33 41 18 22 1007.4 - 0.2
21/09:00pm 11.8 5.3 10.2 90 0.8 N 35 46 19 25 1008.1 1008.2 0.2
21/08:30pm 11.6 5.5 9.9 89 0.9 N 32 39 17 21 1008.9 - 0.2
21/08:00pm 11.7 5.5 9.9 89 0.9 N 33 39 18 21 1008.8 - 0.2
21/07:30pm 11.5 5.4 9.9 90 0.8 N 32 35 17 19 1009.3 - 0.2
21/07:00pm 11.5 5.8 9.9 90 0.8 N 30 37 16 20 1009.5 - 0.2
21/06:30pm 11.6 6.4 10.2 91 0.7 N 28 32 15 17 1009.7 - 0.2
21/06:00pm 11.4 6.5 10.1 92 0.7 N 26 32 14 17 1010.0 1010.1 0.2
21/05:30pm 11.3 6.0 9.9 91 0.7 N 28 33 15 18 1010.2 - 0.2
21/05:00pm 11.3 6.7 9.6 89 0.9 N 24 30 13 16 1010.3 - 0.2
21/04:30pm 12.0 8.3 10.2 89 0.9 N 20 28 11 15 1010.3 - 0.2
21/04:00pm 11.7 7.7 10.4 92 0.7 N 22 30 12 16 1010.6 - 0.2
21/03:30pm 11.5 7.8 10.2 92 0.7 N 20 28 11 15 1011.1 - 0.2
21/03:00pm 11.4 7.8 10.0 91 0.7 N 19 26 10 14 1011.5 1011.6 0.2
21/02:30pm 11.5 7.9 10.4 93 0.6 N 20 30 11 16 1011.9 - 0.2
21/02:00pm 11.6 7.6 10.3 92 0.7 N 22 28 12 15 1012.4 - 0.2
21/01:30pm 12.0 7.3 10.7 92 0.7 N 26 32 14 17 1012.6 - 0.0
21/01:00pm 11.8 7.7 10.2 90 0.8 NNE 22 28 12 15 1012.9 - 0.0
21/12:30pm 12.2 7.0 10.4 89 0.9 NNE 28 32 15 17 1013.9 - 0.0
21/12:00pm 12.2 7.0 10.4 89 0.9 NNE 28 33 15 18 1014.5 1014.6 0.0
21/11:30am 12.2 6.1 10.3 88 1.0 NNE 33 39 18 21 1014.9 - 0.0
21/11:00am 12.0 5.7 9.7 86 1.2 NNE 33 41 18 22 1015.6 - 0.0
21/10:30am 13.0 7.1 11.2 89 1.0 NE 33 39 18 21 1015.8 - 0.0
21/10:00am 11.7 6.4 9.8 88 1.0 NNE 28 33 15 18 1016.6 - 0.0
21/09:30am 11.6 5.9 9.7 88 1.0 NE 30 35 16 19 1016.6 - 0.0
21/09:00am 11.8 6.5 9.7 87 1.1 NE 28 32 15 17 1016.7 1016.8 0.0
21/08:30am 11.0 5.7 8.6 85 1.2 NE 26 30 14 16 1017.0 - 0.0
21/08:00am 10.3 5.8 8.6 89 0.8 NE 22 26 12 14 1017.2 - 0.0
21/07:30am 9.6 5.3 8.0 90 0.8 NE 20 24 11 13 1017.5 - 0.0
21/07:00am 9.5 5.5 8.1 91 0.7 NE 19 22 10 12 1017.7 - 0.0
21/06:30am 9.8 5.8 8.4 91 0.7 NNE 19 22 10 12 1017.7 - 0.0
21/06:00am 9.4 5.3 7.8 90 0.8 NE 19 20 10 11 1017.7 1017.9 0.0
21/05:30am 9.4 6.0 7.7 89 0.8 ENE 15 17 8 9 1017.8 - 0.0

Other Formats:

Comma delimited format used in spreadsheet applications
http://www.bom.gov.au/fwo/IDT60801/IDT60801.94949.axf

JavaScript Object Notation format (JSON) in row-major order
http://www.bom.gov.au/fwo/IDT60801/IDT60801.94949.json